sensor_id;sensor_type;location;lat;lon;timestamp;temperature;humidity
61412;DHT22;47278;49.732;7.690;2023-03-08T00:00:48;6.10;99.90
61412;DHT22;47278;49.732;7.690;2023-03-08T00:03:14;6.10;99.90
61412;DHT22;47278;49.732;7.690;2023-03-08T00:05:40;6.10;99.90
61412;DHT22;47278;49.732;7.690;2023-03-08T00:08:05;6.10;99.90
61412;DHT22;47278;49.732;7.690;2023-03-08T00:10:31;6.10;99.90
61412;DHT22;47278;49.732;7.690;2023-03-08T00:12:56;6.10;99.90
61412;DHT22;47278;49.732;7.690;2023-03-08T00:15:22;6.00;99.90
61412;DHT22;47278;49.732;7.690;2023-03-08T00:17:48;6.10;99.90
61412;DHT22;47278;49.732;7.690;2023-03-08T00:20:13;6.10;99.90
61412;DHT22;47278;49.732;7.690;2023-03-08T00:22:39;6.00;99.90
61412;DHT22;47278;49.732;7.690;2023-03-08T00:25:06;6.00;99.90
61412;DHT22;47278;49.732;7.690;2023-03-08T00:27:33;6.00;99.90
61412;DHT22;47278;49.732;7.690;2023-03-08T00:29:59;6.10;99.90
61412;DHT22;47278;49.732;7.690;2023-03-08T00:32:24;8.50;99.90
61412;DHT22;47278;49.732;7.690;2023-03-08T00:34:51;6.00;99.90
61412;DHT22;47278;49.732;7.690;2023-03-08T00:37:16;5.90;99.90
61412;DHT22;47278;49.732;7.690;2023-03-08T00:39:42;5.90;99.90
61412;DHT22;47278;49.732;7.690;2023-03-08T00:42:07;5.80;99.90
61412;DHT22;47278;49.732;7.690;2023-03-08T00:44:33;5.80;99.90
61412;DHT22;47278;49.732;7.690;2023-03-08T00:46:59;5.80;99.90
61412;DHT22;47278;49.732;7.690;2023-03-08T00:49:24;5.90;99.90
61412;DHT22;47278;49.732;7.690;2023-03-08T00:51:50;5.90;99.90
61412;DHT22;47278;49.732;7.690;2023-03-08T00:54:15;5.90;99.90
61412;DHT22;47278;49.732;7.690;2023-03-08T00:56:41;5.90;99.90
61412;DHT22;47278;49.732;7.690;2023-03-08T00:59:06;6.00;99.90
61412;DHT22;47278;49.732;7.690;2023-03-08T01:01:32;6.00;99.90
61412;DHT22;47278;49.732;7.690;2023-03-08T01:03:58;6.00;99.90
61412;DHT22;47278;49.732;7.690;2023-03-08T01:06:23;5.90;99.90
61412;DHT22;47278;49.732;7.690;2023-03-08T01:08:49;6.00;99.90
61412;DHT22;47278;49.732;7.690;2023-03-08T01:11:18;5.90;99.90
61412;DHT22;47278;49.732;7.690;2023-03-08T01:13:44;5.90;99.90
61412;DHT22;47278;49.732;7.690;2023-03-08T01:16:24;5.90;99.90
61412;DHT22;47278;49.732;7.690;2023-03-08T01:18:49;5.80;99.90
61412;DHT22;47278;49.732;7.690;2023-03-08T01:21:15;5.80;99.90
61412;DHT22;47278;49.732;7.690;2023-03-08T01:23:41;5.60;99.90
61412;DHT22;47278;49.732;7.690;2023-03-08T01:26:09;5.60;99.90
61412;DHT22;47278;49.732;7.690;2023-03-08T01:28:35;5.60;99.90
61412;DHT22;47278;49.732;7.690;2023-03-08T01:31:01;5.50;99.90
61412;DHT22;47278;49.732;7.690;2023-03-08T01:33:27;5.50;99.90
61412;DHT22;47278;49.732;7.690;2023-03-08T01:35:53;5.40;99.90
61412;DHT22;47278;49.732;7.690;2023-03-08T01:38:18;5.30;99.90
61412;DHT22;47278;49.732;7.690;2023-03-08T01:40:44;5.20;99.90
61412;DHT22;47278;49.732;7.690;2023-03-08T01:43:10;5.30;99.90
61412;DHT22;47278;49.732;7.690;2023-03-08T01:46:01;5.20;99.90
61412;DHT22;47278;49.732;7.690;2023-03-08T01:48:32;5.20;99.90
61412;DHT22;47278;49.732;7.690;2023-03-08T01:50:58;5.10;99.90
61412;DHT22;47278;49.732;7.690;2023-03-08T01:53:25;5.00;99.90
61412;DHT22;47278;49.732;7.690;2023-03-08T01:55:50;5.10;99.90
61412;DHT22;47278;49.732;7.690;2023-03-08T01:58:16;5.10;99.90
61412;DHT22;47278;49.732;7.690;2023-03-08T02:00:42;5.10;99.90
61412;DHT22;47278;49.732;7.690;2023-03-08T02:03:08;5.10;99.90
61412;DHT22;47278;49.732;7.690;2023-03-08T02:05:38;5.10;99.90
61412;DHT22;47278;49.732;7.690;2023-03-08T02:08:04;5.10;99.90
61412;DHT22;47278;49.732;7.690;2023-03-08T02:10:30;5.10;99.90
61412;DHT22;47278;49.732;7.690;2023-03-08T02:12:56;5.10;99.90
61412;DHT22;47278;49.732;7.690;2023-03-08T02:15:21;5.10;99.90
61412;DHT22;47278;49.732;7.690;2023-03-08T02:17:47;5.20;99.90
61412;DHT22;47278;49.732;7.690;2023-03-08T02:22:45;5.20;99.90
61412;DHT22;47278;49.732;7.690;2023-03-08T02:25:14;5.20;99.90
61412;DHT22;47278;49.732;7.690;2023-03-08T02:27:40;5.30;99.90
61412;DHT22;47278;49.732;7.690;2023-03-08T02:30:06;5.30;99.90
61412;DHT22;47278;49.732;7.690;2023-03-08T02:32:32;5.30;99.90
61412;DHT22;47278;49.732;7.690;2023-03-08T02:34:57;5.30;99.90
61412;DHT22;47278;49.732;7.690;2023-03-08T02:37:23;5.30;99.90
61412;DHT22;47278;49.732;7.690;2023-03-08T02:39:49;5.20;99.90
61412;DHT22;47278;49.732;7.690;2023-03-08T02:42:14;5.20;99.90
61412;DHT22;47278;49.732;7.690;2023-03-08T02:44:40;5.20;99.90
61412;DHT22;47278;49.732;7.690;2023-03-08T02:47:05;5.20;99.90
61412;DHT22;47278;49.732;7.690;2023-03-08T02:49:31;5.10;99.90
61412;DHT22;47278;49.732;7.690;2023-03-08T02:51:56;5.10;99.90
61412;DHT22;47278;49.732;7.690;2023-03-08T02:54:22;5.10;99.90
61412;DHT22;47278;49.732;7.690;2023-03-08T02:56:47;5.10;99.90
61412;DHT22;47278;49.732;7.690;2023-03-08T02:59:13;5.10;99.90
61412;DHT22;47278;49.732;7.690;2023-03-08T03:01:38;5.10;99.90
61412;DHT22;47278;49.732;7.690;2023-03-08T03:04:04;5.10;99.90
61412;DHT22;47278;49.732;7.690;2023-03-08T03:06:29;5.10;99.90
61412;DHT22;47278;49.732;7.690;2023-03-08T03:08:56;5.20;99.90
61412;DHT22;47278;49.732;7.690;2023-03-08T03:11:22;5.00;99.90
61412;DHT22;47278;49.732;7.690;2023-03-08T03:13:52;5.00;99.90
61412;DHT22;47278;49.732;7.690;2023-03-08T03:16:18;5.00;99.90
61412;DHT22;47278;49.732;7.690;2023-03-08T03:18:44;5.00;99.90
61412;DHT22;47278;49.732;7.690;2023-03-08T03:21:10;4.90;99.90
61412;DHT22;47278;49.732;7.690;2023-03-08T03:23:36;4.90;99.90
61412;DHT22;47278;49.732;7.690;2023-03-08T03:26:03;4.90;99.90
61412;DHT22;47278;49.732;7.690;2023-03-08T03:28:29;4.80;99.90
61412;DHT22;47278;49.732;7.690;2023-03-08T03:30:54;4.80;99.90
61412;DHT22;47278;49.732;7.690;2023-03-08T03:33:20;4.70;99.90
61412;DHT22;47278;49.732;7.690;2023-03-08T03:35:45;4.70;99.90
61412;DHT22;47278;49.732;7.690;2023-03-08T03:38:11;4.60;99.90
61412;DHT22;47278;49.732;7.690;2023-03-08T03:40:36;4.50;99.90
61412;DHT22;47278;49.732;7.690;2023-03-08T03:43:02;4.50;99.90
61412;DHT22;47278;49.732;7.690;2023-03-08T03:45:28;4.50;99.90
61412;DHT22;47278;49.732;7.690;2023-03-08T03:47:53;4.40;99.90
61412;DHT22;47278;49.732;7.690;2023-03-08T03:50:19;4.30;99.90
61412;DHT22;47278;49.732;7.690;2023-03-08T03:52:44;4.30;99.90
61412;DHT22;47278;49.732;7.690;2023-03-08T03:55:10;4.20;99.90
61412;DHT22;47278;49.732;7.690;2023-03-08T03:57:35;4.20;99.90
61412;DHT22;47278;49.732;7.690;2023-03-08T04:00:01;4.10;99.90
61412;DHT22;47278;49.732;7.690;2023-03-08T04:02:27;4.10;99.90
61412;DHT22;47278;49.732;7.690;2023-03-08T04:04:52;4.10;99.90
61412;DHT22;47278;49.732;7.690;2023-03-08T04:07:18;4.10;99.90
61412;DHT22;47278;49.732;7.690;2023-03-08T04:09:43;4.20;99.90
61412;DHT22;47278;49.732;7.690;2023-03-08T04:12:09;4.10;99.90
61412;DHT22;47278;49.732;7.690;2023-03-08T04:14:34;4.10;99.90
61412;DHT22;47278;49.732;7.690;2023-03-08T04:17:00;4.00;99.90
61412;DHT22;47278;49.732;7.690;2023-03-08T04:19:26;4.00;99.90
61412;DHT22;47278;49.732;7.690;2023-03-08T04:21:51;4.00;99.90
61412;DHT22;47278;49.732;7.690;2023-03-08T04:24:17;4.00;99.90
61412;DHT22;47278;49.732;7.690;2023-03-08T04:26:42;4.00;99.90
61412;DHT22;47278;49.732;7.690;2023-03-08T04:29:08;4.00;99.90
61412;DHT22;47278;49.732;7.690;2023-03-08T04:31:33;4.00;99.90
61412;DHT22;47278;49.732;7.690;2023-03-08T04:34:00;4.00;99.90
61412;DHT22;47278;49.732;7.690;2023-03-08T04:36:26;4.00;99.90
61412;DHT22;47278;49.732;7.690;2023-03-08T04:38:52;4.00;99.90
61412;DHT22;47278;49.732;7.690;2023-03-08T04:41:18;4.00;99.90
61412;DHT22;47278;49.732;7.690;2023-03-08T04:43:45;4.00;99.90
61412;DHT22;47278;49.732;7.690;2023-03-08T04:46:11;4.00;99.90
61412;DHT22;47278;49.732;7.690;2023-03-08T04:48:37;4.00;99.90
61412;DHT22;47278;49.732;7.690;2023-03-08T04:51:03;3.90;99.90
61412;DHT22;47278;49.732;7.690;2023-03-08T04:53:30;3.90;99.90
61412;DHT22;47278;49.732;7.690;2023-03-08T04:55:56;3.90;99.90
61412;DHT22;47278;49.732;7.690;2023-03-08T04:58:23;3.90;99.90
61412;DHT22;47278;49.732;7.690;2023-03-08T05:00:49;3.90;99.90
61412;DHT22;47278;49.732;7.690;2023-03-08T05:03:14;3.90;99.90
61412;DHT22;47278;49.732;7.690;2023-03-08T05:05:49;3.90;99.90
61412;DHT22;47278;49.732;7.690;2023-03-08T05:08:16;3.90;99.90
61412;DHT22;47278;49.732;7.690;2023-03-08T05:10:48;3.90;99.90
61412;DHT22;47278;49.732;7.690;2023-03-08T05:13:14;4.00;99.90
61412;DHT22;47278;49.732;7.690;2023-03-08T05:15:40;4.00;99.90
61412;DHT22;47278;49.732;7.690;2023-03-08T05:18:05;4.00;99.90
61412;DHT22;47278;49.732;7.690;2023-03-08T05:20:31;4.00;99.90
61412;DHT22;47278;49.732;7.690;2023-03-08T05:22:57;4.00;99.90
61412;DHT22;47278;49.732;7.690;2023-03-08T05:25:22;3.90;99.90
61412;DHT22;47278;49.732;7.690;2023-03-08T05:27:48;3.80;99.90
61412;DHT22;47278;49.732;7.690;2023-03-08T05:30:13;3.80;99.90
61412;DHT22;47278;49.732;7.690;2023-03-08T05:32:39;3.90;99.90
61412;DHT22;47278;49.732;7.690;2023-03-08T05:35:04;4.10;99.90
61412;DHT22;47278;49.732;7.690;2023-03-08T05:37:30;4.00;99.90
61412;DHT22;47278;49.732;7.690;2023-03-08T05:39:55;4.00;99.90
61412;DHT22;47278;49.732;7.690;2023-03-08T05:42:21;5.10;99.90
61412;DHT22;47278;49.732;7.690;2023-03-08T05:44:47;4.00;99.90
61412;DHT22;47278;49.732;7.690;2023-03-08T05:47:12;4.20;99.90
61412;DHT22;47278;49.732;7.690;2023-03-08T05:49:38;4.30;99.90
61412;DHT22;47278;49.732;7.690;2023-03-08T05:52:04;4.10;99.90
61412;DHT22;47278;49.732;7.690;2023-03-08T05:54:29;4.00;99.90
61412;DHT22;47278;49.732;7.690;2023-03-08T05:56:55;4.00;99.90
61412;DHT22;47278;49.732;7.690;2023-03-08T05:59:20;4.00;99.90
61412;DHT22;47278;49.732;7.690;2023-03-08T06:01:46;4.00;99.90
61412;DHT22;47278;49.732;7.690;2023-03-08T06:04:12;4.00;99.90
61412;DHT22;47278;49.732;7.690;2023-03-08T06:06:37;4.10;99.90
61412;DHT22;47278;49.732;7.690;2023-03-08T06:09:03;4.10;99.90
61412;DHT22;47278;49.732;7.690;2023-03-08T06:11:28;4.10;99.90
61412;DHT22;47278;49.732;7.690;2023-03-08T06:13:54;4.10;99.90
61412;DHT22;47278;49.732;7.690;2023-03-08T06:16:19;4.10;99.90
61412;DHT22;47278;49.732;7.690;2023-03-08T06:18:45;4.10;99.90
61412;DHT22;47278;49.732;7.690;2023-03-08T06:21:11;4.10;99.90
61412;DHT22;47278;49.732;7.690;2023-03-08T06:23:37;4.10;99.90
61412;DHT22;47278;49.732;7.690;2023-03-08T06:26:04;4.10;99.90
61412;DHT22;47278;49.732;7.690;2023-03-08T06:28:30;5.70;99.90
61412;DHT22;47278;49.732;7.690;2023-03-08T06:30:56;4.20;99.90
61412;DHT22;47278;49.732;7.690;2023-03-08T06:33:23;4.10;99.90
61412;DHT22;47278;49.732;7.690;2023-03-08T06:38:24;4.10;99.90
61412;DHT22;47278;49.732;7.690;2023-03-08T06:40:49;4.00;99.90
61412;DHT22;47278;49.732;7.690;2023-03-08T06:43:15;4.30;99.90
61412;DHT22;47278;49.732;7.690;2023-03-08T06:45:40;4.30;99.90
61412;DHT22;47278;49.732;7.690;2023-03-08T06:48:06;4.30;99.90
61412;DHT22;47278;49.732;7.690;2023-03-08T06:50:32;4.30;99.90
61412;DHT22;47278;49.732;7.690;2023-03-08T06:52:58;4.40;99.90
61412;DHT22;47278;49.732;7.690;2023-03-08T06:55:23;4.40;99.90
61412;DHT22;47278;49.732;7.690;2023-03-08T06:57:49;4.30;99.90
61412;DHT22;47278;49.732;7.690;2023-03-08T07:00:15;4.30;99.90
61412;DHT22;47278;49.732;7.690;2023-03-08T07:02:41;4.30;99.90
61412;DHT22;47278;49.732;7.690;2023-03-08T07:05:06;4.20;99.90
61412;DHT22;47278;49.732;7.690;2023-03-08T07:07:32;4.10;99.90
61412;DHT22;47278;49.732;7.690;2023-03-08T07:09:59;3.80;99.90
61412;DHT22;47278;49.732;7.690;2023-03-08T07:12:25;3.70;99.90
61412;DHT22;47278;49.732;7.690;2023-03-08T07:14:51;3.60;99.90
61412;DHT22;47278;49.732;7.690;2023-03-08T07:17:17;3.40;99.90
61412;DHT22;47278;49.732;7.690;2023-03-08T07:19:44;3.20;99.90
61412;DHT22;47278;49.732;7.690;2023-03-08T07:22:09;3.10;99.90
61412;DHT22;47278;49.732;7.690;2023-03-08T07:24:37;3.00;99.90
61412;DHT22;47278;49.732;7.690;2023-03-08T07:27:02;3.10;99.90
61412;DHT22;47278;49.732;7.690;2023-03-08T07:29:28;3.10;99.90
61412;DHT22;47278;49.732;7.690;2023-03-08T07:31:54;2.90;99.90
61412;DHT22;47278;49.732;7.690;2023-03-08T07:34:19;2.90;99.90
61412;DHT22;47278;49.732;7.690;2023-03-08T07:36:45;2.90;99.90
61412;DHT22;47278;49.732;7.690;2023-03-08T07:39:10;2.80;99.90
61412;DHT22;47278;49.732;7.690;2023-03-08T07:41:36;2.80;99.90
61412;DHT22;47278;49.732;7.690;2023-03-08T07:44:01;2.70;99.90
61412;DHT22;47278;49.732;7.690;2023-03-08T07:46:28;2.70;99.90
61412;DHT22;47278;49.732;7.690;2023-03-08T07:48:53;2.60;99.90
61412;DHT22;47278;49.732;7.690;2023-03-08T07:51:19;2.70;99.90
61412;DHT22;47278;49.732;7.690;2023-03-08T07:53:44;2.70;99.90
61412;DHT22;47278;49.732;7.690;2023-03-08T07:56:10;2.70;99.90
61412;DHT22;47278;49.732;7.690;2023-03-08T07:58:36;2.60;99.90
61412;DHT22;47278;49.732;7.690;2023-03-08T08:01:06;4.50;99.90
61412;DHT22;47278;49.732;7.690;2023-03-08T08:03:31;2.60;99.90
61412;DHT22;47278;49.732;7.690;2023-03-08T08:06:00;2.60;99.90
61412;DHT22;47278;49.732;7.690;2023-03-08T08:08:25;2.50;99.90
61412;DHT22;47278;49.732;7.690;2023-03-08T08:10:51;2.40;99.90
61412;DHT22;47278;49.732;7.690;2023-03-08T08:13:16;2.40;99.90
61412;DHT22;47278;49.732;7.690;2023-03-08T08:15:42;3.70;99.90
61412;DHT22;47278;49.732;7.690;2023-03-08T08:18:08;2.40;99.90
61412;DHT22;47278;49.732;7.690;2023-03-08T08:20:33;2.50;99.90
61412;DHT22;47278;49.732;7.690;2023-03-08T08:22:59;2.40;99.90
61412;DHT22;47278;49.732;7.690;2023-03-08T08:25:24;2.40;99.90
61412;DHT22;47278;49.732;7.690;2023-03-08T08:27:50;2.40;99.90
61412;DHT22;47278;49.732;7.690;2023-03-08T08:30:16;2.40;99.90
61412;DHT22;47278;49.732;7.690;2023-03-08T08:32:41;2.50;99.90
61412;DHT22;47278;49.732;7.690;2023-03-08T08:35:08;2.60;99.90
61412;DHT22;47278;49.732;7.690;2023-03-08T08:37:34;2.60;99.90
61412;DHT22;47278;49.732;7.690;2023-03-08T08:39:59;2.70;99.90
61412;DHT22;47278;49.732;7.690;2023-03-08T08:42:25;2.70;99.90
61412;DHT22;47278;49.732;7.690;2023-03-08T08:44:51;2.60;99.90
61412;DHT22;47278;49.732;7.690;2023-03-08T08:47:17;2.70;99.90
61412;DHT22;47278;49.732;7.690;2023-03-08T08:49:42;2.60;99.90
61412;DHT22;47278;49.732;7.690;2023-03-08T08:52:08;2.70;99.90
61412;DHT22;47278;49.732;7.690;2023-03-08T08:54:33;2.70;99.90
61412;DHT22;47278;49.732;7.690;2023-03-08T08:56:59;2.50;99.90
61412;DHT22;47278;49.732;7.690;2023-03-08T08:59:24;2.60;99.90
61412;DHT22;47278;49.732;7.690;2023-03-08T09:01:50;2.70;99.90
61412;DHT22;47278;49.732;7.690;2023-03-08T09:04:16;2.80;99.90
61412;DHT22;47278;49.732;7.690;2023-03-08T09:06:41;2.80;99.90
61412;DHT22;47278;49.732;7.690;2023-03-08T09:09:07;2.90;99.90
61412;DHT22;47278;49.732;7.690;2023-03-08T09:11:33;3.00;99.90
61412;DHT22;47278;49.732;7.690;2023-03-08T09:13:59;2.90;99.90
61412;DHT22;47278;49.732;7.690;2023-03-08T09:16:32;3.10;99.90
61412;DHT22;47278;49.732;7.690;2023-03-08T09:18:59;3.20;99.90
61412;DHT22;47278;49.732;7.690;2023-03-08T09:21:25;3.20;99.90
61412;DHT22;47278;49.732;7.690;2023-03-08T09:23:51;3.20;99.90
61412;DHT22;47278;49.732;7.690;2023-03-08T09:26:17;2.20;99.90
61412;DHT22;47278;49.732;7.690;2023-03-08T09:28:42;3.30;99.90
61412;DHT22;47278;49.732;7.690;2023-03-08T09:31:09;3.30;99.90
61412;DHT22;47278;49.732;7.690;2023-03-08T09:33:41;3.40;99.90
61412;DHT22;47278;49.732;7.690;2023-03-08T09:36:06;3.40;99.90
61412;DHT22;47278;49.732;7.690;2023-03-08T09:38:32;3.60;99.90
61412;DHT22;47278;49.732;7.690;2023-03-08T09:43:41;3.50;99.90
61412;DHT22;47278;49.732;7.690;2023-03-08T09:46:10;3.60;99.90
61412;DHT22;47278;49.732;7.690;2023-03-08T09:48:36;3.60;99.90
61412;DHT22;47278;49.732;7.690;2023-03-08T09:51:03;3.70;99.90
61412;DHT22;47278;49.732;7.690;2023-03-08T09:53:40;3.50;99.90
61412;DHT22;47278;49.732;7.690;2023-03-08T10:04:18;3.90;99.90
61412;DHT22;47278;49.732;7.690;2023-03-08T10:09:33;3.70;99.90
61412;DHT22;47278;49.732;7.690;2023-03-08T10:14:35;3.40;99.90
61412;DHT22;47278;49.732;7.690;2023-03-08T10:17:08;3.30;99.90
61412;DHT22;47278;49.732;7.690;2023-03-08T10:22:03;3.50;99.90
61412;DHT22;47278;49.732;7.690;2023-03-08T10:24:36;3.50;99.90
61412;DHT22;47278;49.732;7.690;2023-03-08T10:27:14;3.50;99.90
61412;DHT22;47278;49.732;7.690;2023-03-08T10:29:46;3.60;99.90
61412;DHT22;47278;49.732;7.690;2023-03-08T10:32:12;3.70;99.90
61412;DHT22;47278;49.732;7.690;2023-03-08T10:34:37;3.80;99.90
61412;DHT22;47278;49.732;7.690;2023-03-08T10:37:04;3.70;99.90
61412;DHT22;47278;49.732;7.690;2023-03-08T10:39:31;3.70;99.90
61412;DHT22;47278;49.732;7.690;2023-03-08T10:41:57;3.90;99.90
61412;DHT22;47278;49.732;7.690;2023-03-08T10:47:21;4.00;99.90
61412;DHT22;47278;49.732;7.690;2023-03-08T10:49:47;4.10;99.90
61412;DHT22;47278;49.732;7.690;2023-03-08T10:52:26;4.00;99.90
61412;DHT22;47278;49.732;7.690;2023-03-08T10:55:05;4.00;99.90
61412;DHT22;47278;49.732;7.690;2023-03-08T10:57:31;4.00;99.90
61412;DHT22;47278;49.732;7.690;2023-03-08T10:59:59;4.00;99.90
61412;DHT22;47278;49.732;7.690;2023-03-08T11:02:25;4.00;99.90
61412;DHT22;47278;49.732;7.690;2023-03-08T11:04:52;6.90;99.90
61412;DHT22;47278;49.732;7.690;2023-03-08T11:07:20;4.10;99.90
61412;DHT22;47278;49.732;7.690;2023-03-08T11:09:48;4.10;99.90
61412;DHT22;47278;49.732;7.690;2023-03-08T11:12:23;4.10;99.90
61412;DHT22;47278;49.732;7.690;2023-03-08T11:14:50;4.30;99.90
61412;DHT22;47278;49.732;7.690;2023-03-08T11:17:32;4.40;99.90
61412;DHT22;47278;49.732;7.690;2023-03-08T11:20:03;4.50;99.90
61412;DHT22;47278;49.732;7.690;2023-03-08T11:22:38;4.40;99.90
61412;DHT22;47278;49.732;7.690;2023-03-08T11:30:12;4.80;99.90
61412;DHT22;47278;49.732;7.690;2023-03-08T11:32:52;4.80;99.90
61412;DHT22;47278;49.732;7.690;2023-03-08T11:38:28;4.80;99.90
61412;DHT22;47278;49.732;7.690;2023-03-08T11:45:54;5.10;99.90
61412;DHT22;47278;49.732;7.690;2023-03-08T11:58:54;5.10;99.90
61412;DHT22;47278;49.732;7.690;2023-03-08T12:01:23;5.20;99.90
61412;DHT22;47278;49.732;7.690;2023-03-08T12:03:53;5.30;99.90
61412;DHT22;47278;49.732;7.690;2023-03-08T12:06:22;5.30;99.90
61412;DHT22;47278;49.732;7.690;2023-03-08T12:09:03;5.50;99.90
61412;DHT22;47278;49.732;7.690;2023-03-08T12:14:01;5.40;99.90
61412;DHT22;47278;49.732;7.690;2023-03-08T12:16:34;5.40;99.90
61412;DHT22;47278;49.732;7.690;2023-03-08T12:29:40;5.90;99.90
61412;DHT22;47278;49.732;7.690;2023-03-08T12:32:08;5.80;99.90
61412;DHT22;47278;49.732;7.690;2023-03-08T12:34:36;5.90;99.90
61412;DHT22;47278;49.732;7.690;2023-03-08T12:37:02;6.00;99.90
61412;DHT22;47278;49.732;7.690;2023-03-08T12:39:29;6.10;99.90
61412;DHT22;47278;49.732;7.690;2023-03-08T12:41:56;6.20;99.90
61412;DHT22;47278;49.732;7.690;2023-03-08T12:44:23;6.30;99.90
61412;DHT22;47278;49.732;7.690;2023-03-08T12:46:50;6.40;99.90
61412;DHT22;47278;49.732;7.690;2023-03-08T12:52:02;6.40;99.90
61412;DHT22;47278;49.732;7.690;2023-03-08T12:54:29;6.50;99.90
61412;DHT22;47278;49.732;7.690;2023-03-08T12:56:55;6.70;99.90
61412;DHT22;47278;49.732;7.690;2023-03-08T12:59:27;6.70;99.90
61412;DHT22;47278;49.732;7.690;2023-03-08T13:04:34;6.80;99.90
61412;DHT22;47278;49.732;7.690;2023-03-08T13:15:18;7.00;99.90
61412;DHT22;47278;49.732;7.690;2023-03-08T13:17:57;6.90;99.90
61412;DHT22;47278;49.732;7.690;2023-03-08T13:25:31;7.10;99.90
61412;DHT22;47278;49.732;7.690;2023-03-08T13:28:08;7.10;99.90
61412;DHT22;47278;49.732;7.690;2023-03-08T13:30:35;7.20;99.90
61412;DHT22;47278;49.732;7.690;2023-03-08T13:33:10;7.20;99.90
61412;DHT22;47278;49.732;7.690;2023-03-08T13:35:36;7.30;99.90
61412;DHT22;47278;49.732;7.690;2023-03-08T13:38:02;7.40;99.90
61412;DHT22;47278;49.732;7.690;2023-03-08T13:40:27;7.50;99.90
61412;DHT22;47278;49.732;7.690;2023-03-08T13:42:58;7.60;99.90
61412;DHT22;47278;49.732;7.690;2023-03-08T13:45:24;9.10;99.90
61412;DHT22;47278;49.732;7.690;2023-03-08T13:47:50;7.50;99.90
61412;DHT22;47278;49.732;7.690;2023-03-08T13:50:18;7.70;99.90
61412;DHT22;47278;49.732;7.690;2023-03-08T13:52:44;9.40;99.90
61412;DHT22;47278;49.732;7.690;2023-03-08T13:55:17;7.80;99.90
61412;DHT22;47278;49.732;7.690;2023-03-08T13:57:45;7.90;99.90
61412;DHT22;47278;49.732;7.690;2023-03-08T14:02:46;8.10;99.90
61412;DHT22;47278;49.732;7.690;2023-03-08T14:05:18;8.20;99.90
61412;DHT22;47278;49.732;7.690;2023-03-08T14:07:54;8.20;99.90
61412;DHT22;47278;49.732;7.690;2023-03-08T14:10:20;8.20;99.90
61412;DHT22;47278;49.732;7.690;2023-03-08T14:12:51;8.30;99.90
61412;DHT22;47278;49.732;7.690;2023-03-08T14:15:18;8.50;99.90
61412;DHT22;47278;49.732;7.690;2023-03-08T14:17:43;8.50;99.90
61412;DHT22;47278;49.732;7.690;2023-03-08T14:20:19;8.60;99.90
61412;DHT22;47278;49.732;7.690;2023-03-08T14:22:49;8.70;99.90
61412;DHT22;47278;49.732;7.690;2023-03-08T14:25:33;8.80;99.90
61412;DHT22;47278;49.732;7.690;2023-03-08T14:27:59;8.90;99.90
61412;DHT22;47278;49.732;7.690;2023-03-08T14:30:25;8.90;99.90
61412;DHT22;47278;49.732;7.690;2023-03-08T14:32:56;8.90;99.90
61412;DHT22;47278;49.732;7.690;2023-03-08T14:35:24;8.90;99.90
61412;DHT22;47278;49.732;7.690;2023-03-08T14:37:50;8.90;99.90
61412;DHT22;47278;49.732;7.690;2023-03-08T14:42:50;8.90;99.90
61412;DHT22;47278;49.732;7.690;2023-03-08T14:47:47;8.90;99.90
61412;DHT22;47278;49.732;7.690;2023-03-08T14:52:43;8.90;99.90
61412;DHT22;47278;49.732;7.690;2023-03-08T14:55:29;9.00;99.90
61412;DHT22;47278;49.732;7.690;2023-03-08T14:57:56;9.00;99.90
61412;DHT22;47278;49.732;7.690;2023-03-08T15:00:23;9.00;99.90
61412;DHT22;47278;49.732;7.690;2023-03-08T15:02:49;9.10;99.90
61412;DHT22;47278;49.732;7.690;2023-03-08T15:05:15;9.10;99.90
61412;DHT22;47278;49.732;7.690;2023-03-08T15:07:42;9.10;99.90
61412;DHT22;47278;49.732;7.690;2023-03-08T15:10:10;9.10;99.90
61412;DHT22;47278;49.732;7.690;2023-03-08T15:12:40;9.10;99.90
61412;DHT22;47278;49.732;7.690;2023-03-08T15:15:11;9.20;99.90
61412;DHT22;47278;49.732;7.690;2023-03-08T15:17:37;9.20;99.90
61412;DHT22;47278;49.732;7.690;2023-03-08T15:20:02;9.20;99.90
61412;DHT22;47278;49.732;7.690;2023-03-08T15:22:30;9.20;99.90
61412;DHT22;47278;49.732;7.690;2023-03-08T15:24:57;9.20;99.90
61412;DHT22;47278;49.732;7.690;2023-03-08T15:27:23;9.20;99.90
61412;DHT22;47278;49.732;7.690;2023-03-08T15:29:48;9.20;99.90
61412;DHT22;47278;49.732;7.690;2023-03-08T15:32:14;9.20;99.90
61412;DHT22;47278;49.732;7.690;2023-03-08T15:34:39;9.20;99.90
61412;DHT22;47278;49.732;7.690;2023-03-08T15:37:05;9.20;99.90
61412;DHT22;47278;49.732;7.690;2023-03-08T15:39:31;9.20;99.90
61412;DHT22;47278;49.732;7.690;2023-03-08T15:41:57;9.30;99.90
61412;DHT22;47278;49.732;7.690;2023-03-08T15:44:22;9.30;99.90
61412;DHT22;47278;49.732;7.690;2023-03-08T15:46:48;9.30;99.90
61412;DHT22;47278;49.732;7.690;2023-03-08T15:49:13;9.30;99.90
61412;DHT22;47278;49.732;7.690;2023-03-08T15:51:39;9.40;99.90
61412;DHT22;47278;49.732;7.690;2023-03-08T15:54:05;9.40;99.90
61412;DHT22;47278;49.732;7.690;2023-03-08T15:56:31;9.40;99.90
61412;DHT22;47278;49.732;7.690;2023-03-08T15:58:56;9.40;99.90
61412;DHT22;47278;49.732;7.690;2023-03-08T16:01:23;9.50;99.90
61412;DHT22;47278;49.732;7.690;2023-03-08T16:03:52;9.50;99.90
61412;DHT22;47278;49.732;7.690;2023-03-08T16:06:18;11.80;99.90
61412;DHT22;47278;49.732;7.690;2023-03-08T16:08:46;9.50;99.90
61412;DHT22;47278;49.732;7.690;2023-03-08T16:11:13;9.40;99.90
61412;DHT22;47278;49.732;7.690;2023-03-08T16:13:39;9.40;99.90
61412;DHT22;47278;49.732;7.690;2023-03-08T16:16:05;9.30;99.90
61412;DHT22;47278;49.732;7.690;2023-03-08T16:18:31;9.40;99.90
61412;DHT22;47278;49.732;7.690;2023-03-08T16:20:57;9.50;99.90
61412;DHT22;47278;49.732;7.690;2023-03-08T16:23:23;9.50;99.90
61412;DHT22;47278;49.732;7.690;2023-03-08T16:26:05;9.50;99.90
61412;DHT22;47278;49.732;7.690;2023-03-08T16:28:30;9.40;99.90
61412;DHT22;47278;49.732;7.690;2023-03-08T16:30:56;9.40;99.90
61412;DHT22;47278;49.732;7.690;2023-03-08T16:33:24;9.40;99.90
61412;DHT22;47278;49.732;7.690;2023-03-08T16:35:52;9.40;99.90
61412;DHT22;47278;49.732;7.690;2023-03-08T16:38:18;9.40;99.90
61412;DHT22;47278;49.732;7.690;2023-03-08T16:40:44;9.30;99.90
61412;DHT22;47278;49.732;7.690;2023-03-08T16:43:09;9.60;99.90
61412;DHT22;47278;49.732;7.690;2023-03-08T16:45:35;9.40;99.90
61412;DHT22;47278;49.732;7.690;2023-03-08T16:48:01;9.40;99.90
61412;DHT22;47278;49.732;7.690;2023-03-08T16:50:26;9.40;99.90
61412;DHT22;47278;49.732;7.690;2023-03-08T16:52:53;9.40;99.90
61412;DHT22;47278;49.732;7.690;2023-03-08T16:55:19;9.40;99.90
61412;DHT22;47278;49.732;7.690;2023-03-08T16:57:45;9.40;99.90
61412;DHT22;47278;49.732;7.690;2023-03-08T17:00:10;9.30;99.90
61412;DHT22;47278;49.732;7.690;2023-03-08T17:02:37;9.30;99.90
61412;DHT22;47278;49.732;7.690;2023-03-08T17:05:05;9.30;99.90
61412;DHT22;47278;49.732;7.690;2023-03-08T17:07:30;9.20;99.90
61412;DHT22;47278;49.732;7.690;2023-03-08T17:09:56;9.20;99.90
61412;DHT22;47278;49.732;7.690;2023-03-08T17:12:22;9.20;99.90
61412;DHT22;47278;49.732;7.690;2023-03-08T17:14:48;9.10;99.90